createdAt,value
2018-06-04T00:01:45.349Z,33.48
2018-06-04T00:04:15.180Z,34.48
2018-06-04T00:06:44.213Z,36.42
2018-06-04T00:09:14.500Z,33.73
2018-06-04T00:11:44.227Z,34.55
2018-06-04T00:14:13.283Z,33.28
2018-06-04T00:16:42.316Z,34.43
2018-06-04T00:19:11.761Z,34.10
2018-06-04T00:21:40.785Z,32.45
2018-06-04T00:24:09.896Z,29.90
2018-06-04T00:26:38.942Z,34.20
2018-06-04T00:29:07.953Z,31.55
2018-06-04T00:31:37.289Z,34.53
2018-06-04T00:34:06.385Z,30.57
2018-06-04T00:36:35.581Z,26.42
2018-06-04T00:39:06.988Z,27.35
2018-06-04T00:41:36.442Z,25.88
2018-06-04T00:44:05.426Z,23.85
2018-06-04T00:46:34.994Z,26.07
2018-06-04T00:49:04.908Z,25.55
2018-06-04T00:51:34.772Z,24.35
2018-06-04T00:54:03.787Z,25.82
2018-06-04T00:56:33.535Z,24.50
2018-06-04T00:59:02.403Z,25.55
2018-06-04T01:01:31.532Z,26.20
2018-06-04T01:04:00.820Z,25.17
2018-06-04T01:06:31.340Z,25.62
2018-06-04T01:09:08.498Z,27.10
2018-06-04T01:11:38.456Z,26.07
2018-06-04T01:14:07.435Z,25.55
2018-06-04T01:16:37.446Z,25.72
2018-06-04T01:19:06.580Z,26.17
2018-06-04T01:21:35.657Z,24.37
2018-06-04T01:24:04.668Z,26.87
2018-06-04T01:26:33.666Z,26.07
2018-06-04T01:29:03.436Z,25.92
2018-06-04T01:31:32.456Z,26.17
2018-06-04T01:34:02.291Z,25.15
2018-06-04T01:36:31.286Z,26.02
2018-06-04T01:39:00.311Z,26.12
2018-06-04T01:41:29.717Z,26.33
2018-06-04T01:43:58.721Z,25.97
2018-06-04T01:46:27.760Z,26.45
2018-06-04T01:48:57.640Z,24.50
2018-06-04T01:51:26.675Z,26.48
2018-06-04T01:53:55.722Z,25.82
2018-06-04T01:56:24.883Z,25.80
2018-06-04T01:58:54.752Z,27.13
2018-06-04T02:01:23.825Z,27.42
2018-06-04T02:03:52.778Z,26.43
2018-06-04T02:06:21.938Z,28.40
2018-06-04T02:08:50.929Z,28.57
2018-06-04T02:11:19.997Z,32.93
2018-06-04T02:13:48.989Z,33.95
2018-06-04T02:16:18.940Z,36.00
2018-06-04T02:18:51.683Z,39.15
2018-06-04T02:21:20.719Z,39.75
2018-06-04T02:23:49.695Z,39.13
2018-06-04T02:26:19.174Z,39.90
2018-06-04T02:28:48.959Z,43.08
2018-06-04T02:31:19.157Z,45.15
2018-06-04T02:33:51.879Z,41.98
2018-06-04T02:36:20.872Z,44.36
2018-06-04T02:38:50.701Z,39.67
2018-06-04T02:41:19.645Z,41.30
2018-06-04T02:43:48.721Z,41.58
2018-06-04T02:46:18.515Z,39.40
2018-06-04T02:48:47.590Z,40.60
2018-06-04T02:51:17.301Z,37.38
2018-06-04T02:53:46.325Z,36.95
2018-06-04T02:56:15.338Z,38.83
2018-06-04T02:58:44.397Z,35.65
2018-06-04T03:01:13.475Z,37.33
2018-06-04T03:03:42.441Z,38.35
2018-06-04T03:06:14.315Z,39.35
2018-06-04T03:08:43.294Z,38.88
2018-06-04T03:11:12.088Z,35.37
2018-06-04T03:13:40.735Z,35.63
2018-06-04T03:16:09.589Z,33.83
2018-06-04T03:18:39.472Z,34.30
2018-06-04T03:21:08.650Z,30.88
2018-06-04T03:23:37.626Z,31.97
2018-06-04T03:26:06.659Z,33.38
2018-06-04T03:28:35.727Z,31.45
2018-06-04T03:31:04.790Z,32.90
2018-06-04T03:33:33.781Z,31.62
2018-06-04T03:36:02.835Z,33.40
2018-06-04T03:38:31.900Z,31.73
2018-06-04T03:41:00.929Z,34.55
2018-06-04T03:43:30.030Z,36.33
2018-06-04T03:45:58.984Z,34.00
2018-06-04T03:48:28.018Z,34.58
2018-06-04T03:50:57.055Z,32.95
2018-06-04T03:53:26.129Z,35.80
2018-06-04T03:55:55.108Z,34.48
2018-06-04T03:58:24.961Z,34.88
2018-06-04T04:00:55.205Z,33.50
2018-06-04T04:03:25.048Z,33.38
2018-06-04T04:05:54.064Z,33.98
2018-06-04T04:08:23.120Z,33.40
2018-06-04T04:10:52.871Z,32.25
2018-06-04T04:13:21.872Z,32.30
2018-06-04T04:15:53.830Z,31.37
2018-06-04T04:18:22.927Z,34.98
2018-06-04T04:20:52.997Z,32.13
2018-06-04T04:23:22.026Z,31.37
2018-06-04T04:25:51.068Z,32.48
2018-06-04T04:28:20.086Z,30.62
2018-06-04T04:30:49.141Z,31.80
2018-06-04T04:33:18.093Z,31.60
2018-06-04T04:35:47.936Z,32.03
2018-06-04T04:38:16.967Z,32.85
2018-06-04T04:40:46.173Z,32.33
2018-06-04T04:43:15.538Z,33.18
2018-06-04T04:45:44.588Z,33.67
2018-06-04T04:48:13.577Z,34.73
2018-06-04T04:50:43.397Z,35.95
2018-06-04T04:53:13.619Z,34.80
2018-06-04T04:55:43.811Z,36.10
2018-06-04T04:58:13.685Z,35.88
2018-06-04T05:00:42.781Z,38.17
2018-06-04T05:03:11.848Z,39.08
2018-06-04T05:05:41.323Z,32.50
2018-06-04T05:08:11.738Z,29.33
2018-06-04T05:10:41.278Z,32.55
2018-06-04T05:13:10.342Z,28.35
2018-06-04T05:15:39.328Z,27.10
2018-06-04T05:18:09.678Z,28.40
2018-06-04T05:20:38.838Z,29.07
2018-06-04T05:23:07.883Z,31.75
2018-06-04T05:25:36.896Z,30.52
2018-06-04T05:28:07.078Z,29.70
2018-06-04T05:30:37.275Z,31.42
2018-06-04T05:33:06.262Z,32.40
2018-06-04T05:35:35.308Z,29.02
2018-06-04T05:38:05.504Z,30.75
2018-06-04T05:40:36.552Z,28.98
2018-06-04T05:43:05.735Z,29.30
2018-06-04T05:45:34.824Z,29.85
2018-06-04T05:48:04.713Z,26.17
2018-06-04T05:50:33.786Z,27.22
2018-06-04T05:53:02.913Z,27.55
2018-06-04T05:55:31.942Z,28.02
2018-06-04T05:58:01.824Z,28.12
2018-06-04T06:00:30.830Z,29.60
2018-06-04T06:02:59.860Z,27.27
2018-06-04T06:05:28.947Z,25.72
2018-06-04T06:07:57.965Z,27.27
2018-06-04T06:10:27.038Z,28.15
2018-06-04T06:12:57.280Z,27.67
2018-06-04T06:15:27.134Z,26.62
2018-06-04T06:17:56.152Z,25.27
2018-06-04T06:20:25.741Z,27.17
2018-06-04T06:22:55.615Z,27.20
2018-06-04T06:25:24.684Z,29.10
2018-06-04T06:27:54.144Z,29.50
2018-06-04T06:30:23.219Z,27.52
2018-06-04T06:32:52.176Z,28.30
2018-06-04T06:35:21.207Z,29.20
2018-06-04T06:37:51.136Z,26.33
2018-06-04T06:40:19.995Z,24.98
2018-06-04T06:42:48.960Z,24.80
2018-06-04T06:45:18.089Z,23.57
2018-06-04T06:47:47.149Z,22.80
2018-06-04T06:50:16.185Z,18.70
2018-06-04T06:52:45.191Z,15.35
2018-06-04T06:55:14.208Z,16.32
2018-06-04T06:57:43.260Z,14.70
2018-06-04T07:00:12.262Z,14.25
2018-06-04T07:02:41.321Z,14.68
2018-06-04T07:05:10.406Z,12.90
2018-06-04T07:07:39.592Z,12.78
2018-06-04T07:10:08.625Z,12.40
2018-06-04T07:12:37.656Z,13.58
2018-06-04T07:15:06.999Z,13.95
2018-06-04T07:17:37.279Z,14.47
2018-06-04T07:20:06.414Z,15.43
2018-06-04T07:22:36.615Z,15.03
2018-06-04T07:25:07.713Z,15.45
2018-06-04T07:27:36.735Z,14.70
2018-06-04T07:30:10.033Z,16.27
2018-06-04T07:32:39.087Z,15.28
2018-06-04T07:35:12.115Z,13.78
2018-06-04T07:37:41.145Z,14.80
2018-06-04T07:40:10.850Z,14.18
2018-06-04T07:42:39.873Z,14.47
2018-06-04T07:45:09.260Z,13.98
2018-06-04T07:47:38.307Z,13.78
2018-06-04T07:50:08.532Z,13.07
2018-06-04T07:52:38.559Z,13.53
2018-06-04T07:55:07.554Z,12.75
2018-06-04T07:57:36.563Z,13.35
2018-06-04T08:00:07.022Z,11.45
2018-06-04T08:02:36.411Z,12.50
2018-06-04T08:05:06.103Z,12.20
2018-06-04T08:07:38.976Z,10.32
2018-06-04T08:10:09.221Z,11.95
2018-06-04T08:12:38.279Z,14.45
2018-06-04T08:15:08.319Z,14.80
2018-06-04T08:17:37.973Z,10.95
2018-06-04T08:20:06.966Z,10.80
2018-06-04T08:22:37.236Z,11.73
2018-06-04T08:25:06.254Z,17.20
2018-06-04T08:27:36.154Z,11.25
2018-06-04T08:30:05.149Z,9.35
2018-06-04T08:32:34.185Z,9.68
2018-06-04T08:35:03.250Z,11.60
2018-06-04T08:37:32.274Z,11.70
2018-06-04T08:40:01.283Z,9.45
2018-06-04T08:42:31.488Z,10.00
2018-06-04T08:45:00.534Z,9.95
2018-06-04T08:47:29.618Z,9.68
2018-06-04T08:49:59.473Z,9.25
2018-06-04T08:52:28.486Z,11.40
2018-06-04T08:54:58.689Z,9.08
2018-06-04T08:57:27.742Z,8.63
2018-06-04T08:59:56.895Z,8.25
2018-06-04T09:02:27.114Z,9.83
2018-06-04T09:04:56.176Z,9.35
2018-06-04T09:07:25.261Z,9.20
2018-06-04T09:09:56.531Z,8.75
2018-06-04T09:12:26.451Z,8.48
2018-06-04T09:14:55.815Z,7.65
2018-06-04T09:17:26.060Z,7.67
2018-06-04T09:19:55.105Z,8.83
2018-06-04T09:22:24.002Z,9.53
2018-06-04T09:24:53.458Z,9.45
2018-06-04T09:27:22.851Z,8.18
2018-06-04T09:29:51.924Z,7.95
2018-06-04T09:32:22.180Z,8.50
2018-06-04T09:34:51.855Z,7.47
2018-06-04T09:37:20.839Z,7.58
2018-06-04T09:39:49.887Z,8.40
2018-06-04T09:42:19.579Z,8.40
2018-06-04T09:44:49.396Z,8.80
2018-06-04T09:47:19.253Z,13.00
2018-06-04T09:49:48.367Z,15.10
2018-06-04T09:52:17.522Z,12.95
2018-06-04T09:54:47.048Z,11.88
2018-06-04T09:57:16.052Z,12.70
2018-06-04T09:59:45.188Z,13.43
2018-06-04T10:02:16.688Z,14.63
2018-06-04T10:04:45.765Z,17.52
2018-06-04T10:07:14.739Z,16.15
2018-06-04T10:09:44.991Z,17.45
2018-06-04T10:12:14.042Z,23.10
2018-06-04T10:14:43.041Z,15.50
2018-06-04T10:17:12.056Z,16.00
2018-06-04T10:19:42.325Z,15.50
2018-06-04T10:22:11.377Z,16.93
2018-06-04T10:24:40.376Z,16.05
2018-06-04T10:27:09.460Z,16.32
2018-06-04T10:29:39.323Z,19.37
2018-06-04T10:32:08.329Z,20.08
2018-06-04T10:34:37.369Z,19.05
2018-06-04T10:37:06.463Z,16.50
2018-06-04T10:39:36.645Z,17.57
2018-06-04T10:42:07.041Z,15.10
2018-06-04T10:44:37.371Z,16.57
2018-06-04T10:47:07.361Z,15.48
2018-06-04T10:49:36.384Z,15.03
2018-06-04T10:52:06.540Z,13.22
2018-06-04T10:54:35.528Z,14.18
2018-06-04T10:57:04.739Z,15.38
2018-06-04T10:59:33.776Z,15.85
2018-06-04T11:02:05.369Z,13.43
2018-06-04T11:04:36.006Z,12.53
2018-06-04T11:07:05.033Z,16.37
2018-06-04T11:09:35.208Z,12.63
2018-06-04T11:12:05.112Z,12.40
2018-06-04T11:14:34.037Z,11.55
2018-06-04T11:17:03.037Z,12.33
2018-06-04T11:19:32.055Z,10.88
2018-06-04T11:22:01.964Z,12.53
2018-06-04T11:24:30.972Z,10.95
2018-06-04T11:26:59.973Z,10.05
2018-06-04T11:29:29.104Z,9.83
2018-06-04T11:31:58.380Z,9.30
2018-06-04T11:34:28.218Z,11.45
2018-06-04T11:36:57.249Z,7.72
2018-06-04T11:39:26.295Z,8.03
2018-06-04T11:41:55.925Z,8.63
2018-06-04T11:44:24.887Z,8.00
2018-06-04T11:46:53.928Z,7.30
2018-06-04T11:49:22.923Z,6.42
2018-06-04T11:51:54.092Z,6.33
2018-06-04T11:54:23.858Z,5.25
2018-06-04T11:56:53.163Z,5.47
2018-06-04T11:59:22.175Z,13.22
2018-06-04T12:01:51.261Z,5.95
2018-06-04T12:04:20.354Z,6.90
2018-06-04T12:06:49.406Z,6.77
2018-06-04T12:09:18.407Z,7.90
2018-06-04T12:11:47.847Z,13.88
2018-06-04T12:14:16.925Z,6.53
2018-06-04T12:16:45.930Z,6.50
2018-06-04T12:19:15.099Z,7.10
2018-06-04T12:21:44.121Z,6.05
2018-06-04T12:24:13.143Z,6.87
2018-06-04T12:26:42.164Z,8.40
2018-06-04T12:29:11.846Z,7.54
2018-06-04T12:31:48.292Z,6.60
2018-06-04T12:34:17.249Z,7.22
2018-06-04T12:36:46.648Z,7.95
2018-06-04T12:39:18.499Z,7.15
2018-06-04T12:41:47.732Z,8.78
2018-06-04T12:44:16.764Z,10.38
2018-06-04T12:46:45.797Z,10.98
2018-06-04T12:49:14.804Z,9.93
2018-06-04T12:51:47.478Z,10.43
2018-06-04T12:54:16.485Z,9.63
2018-06-04T12:56:45.486Z,8.65
2018-06-04T12:59:14.448Z,8.08
2018-06-04T13:01:43.558Z,10.38
2018-06-04T13:04:12.576Z,8.33
2018-06-04T13:06:42.449Z,9.53
2018-06-04T13:09:13.140Z,9.85
2018-06-04T13:11:43.079Z,9.48
2018-06-04T13:14:12.123Z,10.25
2018-06-04T13:16:41.195Z,13.40
2018-06-04T13:19:10.282Z,8.93
2018-06-04T13:21:39.447Z,8.00
2018-06-04T13:24:08.791Z,9.88
2018-06-04T13:26:39.066Z,16.60
2018-06-04T13:29:08.196Z,15.58
2018-06-04T13:31:37.720Z,10.25
2018-06-04T13:34:06.940Z,10.93
2018-06-04T13:36:36.483Z,10.40
2018-06-04T13:39:08.324Z,11.20
2018-06-04T13:41:37.367Z,12.45
2018-06-04T13:44:06.382Z,12.18
2018-06-04T13:46:36.617Z,11.97
2018-06-04T13:49:08.527Z,12.35
2018-06-04T13:51:37.556Z,11.00
2018-06-04T13:54:06.689Z,11.12
2018-06-04T13:56:35.691Z,11.85
2018-06-04T13:59:05.132Z,11.80
2018-06-04T14:01:34.159Z,10.50
2018-06-04T14:04:03.156Z,11.30
2018-06-04T14:06:32.206Z,9.90
2018-06-04T14:09:01.241Z,9.13
2018-06-04T14:11:30.270Z,10.18
2018-06-04T14:13:59.279Z,9.45
2018-06-04T14:16:29.121Z,9.43
2018-06-04T14:18:58.144Z,9.58
2018-06-04T14:21:27.163Z,9.83
2018-06-04T14:23:56.203Z,11.57
2018-06-04T14:26:26.296Z,9.55
2018-06-04T14:28:55.490Z,10.15
2018-06-04T14:31:24.519Z,10.38
2018-06-04T14:33:54.466Z,9.55
2018-06-04T14:36:23.479Z,10.45
2018-06-04T14:38:53.390Z,10.40
2018-06-04T14:41:24.520Z,10.40
2018-06-04T14:43:54.364Z,11.15
2018-06-04T14:46:25.023Z,10.50
2018-06-04T14:48:54.100Z,12.53
2018-06-04T14:51:23.130Z,13.35
2018-06-04T14:53:52.016Z,15.57
2018-06-04T14:56:21.791Z,15.20
2018-06-04T14:58:50.797Z,14.83
2018-06-04T15:01:19.906Z,17.92
2018-06-04T15:03:48.926Z,18.87
2018-06-04T15:06:17.965Z,21.33
2018-06-04T15:08:47.801Z,21.33
2018-06-04T15:11:16.897Z,20.55
2018-06-04T15:13:45.935Z,20.88
2018-06-04T15:16:15.236Z,24.35
2018-06-04T15:18:44.528Z,21.60
2018-06-04T15:21:15.572Z,23.42
2018-06-04T15:23:45.522Z,24.45
2018-06-04T15:26:14.569Z,24.85
2018-06-04T15:28:43.628Z,24.80
2018-06-04T15:31:12.648Z,22.98
2018-06-04T15:33:42.920Z,20.65
2018-06-04T15:36:11.950Z,21.30
2018-06-04T15:38:40.981Z,21.35
2018-06-04T15:41:10.777Z,21.60
2018-06-04T15:43:39.857Z,21.90
2018-06-04T15:46:08.841Z,20.15
2018-06-04T15:48:38.817Z,21.12
2018-06-04T15:51:08.075Z,19.27
2018-06-04T15:53:38.328Z,21.05
2018-06-04T15:56:07.351Z,19.12
2018-06-04T15:58:36.668Z,18.00
2018-06-04T16:01:05.750Z,14.50
2018-06-04T16:03:36.502Z,15.88
2018-06-04T16:06:09.188Z,16.07
2018-06-04T16:08:38.210Z,14.63
2018-06-04T16:11:07.236Z,15.18
2018-06-04T16:13:37.461Z,15.23
2018-06-04T16:16:07.409Z,15.13
2018-06-04T16:18:38.528Z,14.78
2018-06-04T16:21:07.523Z,13.20
2018-06-04T16:23:36.565Z,13.80
2018-06-04T16:26:06.018Z,13.75
2018-06-04T16:28:35.184Z,15.28
2018-06-04T16:31:04.349Z,15.48
2018-06-04T16:33:33.365Z,17.12
2018-06-04T16:36:02.494Z,16.87
2018-06-04T16:38:31.516Z,17.75
2018-06-04T16:41:00.604Z,15.53
2018-06-04T16:43:29.683Z,16.70
2018-06-04T16:45:59.998Z,16.77
2018-06-04T16:48:29.886Z,15.70
2018-06-04T16:51:00.082Z,16.90
2018-06-04T16:53:29.124Z,16.65
2018-06-04T16:55:58.281Z,18.30
2018-06-04T16:58:28.509Z,16.30
2018-06-04T17:00:57.542Z,16.82
2018-06-04T17:03:26.661Z,15.90
2018-06-04T17:05:56.181Z,15.65
2018-06-04T17:08:25.300Z,15.08
2018-06-04T17:10:54.241Z,16.10
2018-06-04T17:13:23.312Z,15.48
2018-06-04T17:15:52.390Z,15.72
2018-06-04T17:18:21.606Z,15.58
2018-06-04T17:20:51.849Z,16.73
2018-06-04T17:23:22.122Z,15.23
2018-06-04T17:25:52.117Z,14.70
2018-06-04T17:28:21.162Z,14.47
2018-06-04T17:30:51.248Z,14.63
2018-06-04T17:33:20.402Z,15.60
2018-06-04T17:35:49.583Z,15.05
2018-06-04T17:38:19.643Z,15.63
2018-06-04T17:40:48.452Z,16.52
2018-06-04T17:43:17.462Z,16.93
2018-06-04T17:45:46.679Z,17.57
2018-06-04T17:48:15.787Z,16.90
2018-06-04T17:50:45.121Z,16.50
2018-06-04T17:53:15.835Z,13.78
2018-06-04T17:55:45.020Z,13.58
2018-06-04T17:58:14.929Z,13.50
2018-06-04T18:00:44.037Z,12.82
2018-06-04T18:03:13.509Z,12.85
2018-06-04T18:05:43.043Z,12.80
2018-06-04T18:08:13.194Z,12.45
2018-06-04T18:10:42.352Z,13.25
2018-06-04T18:13:11.506Z,12.23
2018-06-04T18:15:40.997Z,13.03
2018-06-04T18:18:10.063Z,14.50
2018-06-04T18:20:39.123Z,13.00
2018-06-04T18:23:08.529Z,15.50
2018-06-04T18:25:38.065Z,15.50
2018-06-04T18:28:07.163Z,16.35
2018-06-04T18:30:36.366Z,16.53
2018-06-04T18:33:05.522Z,17.23
2018-06-04T18:35:35.292Z,15.38
2018-06-04T18:38:04.673Z,14.53
2018-06-04T18:40:33.738Z,15.28
2018-06-04T18:43:02.862Z,15.13
2018-06-04T18:45:32.542Z,13.70
2018-06-04T18:48:02.392Z,15.13
2018-06-04T18:50:32.045Z,14.00
2018-06-04T18:53:01.139Z,18.23
2018-06-04T18:55:30.185Z,15.10
2018-06-04T18:57:59.558Z,14.80
2018-06-04T19:00:28.698Z,13.32
2018-06-04T19:02:58.003Z,14.18
2018-06-04T19:05:27.168Z,14.33
2018-06-04T19:07:56.789Z,13.83
2018-06-04T19:10:26.252Z,15.47
2018-06-04T19:12:55.376Z,13.53
2018-06-04T19:15:24.474Z,14.45
2018-06-04T19:17:53.682Z,16.25
2018-06-04T19:20:22.774Z,14.20
2018-06-04T19:22:52.066Z,15.83
2018-06-04T19:25:21.285Z,14.90
2018-06-04T19:27:50.436Z,15.30
2018-06-04T19:30:19.601Z,16.07
2018-06-04T19:32:48.725Z,15.70
2018-06-04T19:35:17.794Z,14.93
2018-06-04T19:37:46.949Z,14.85
2018-06-04T19:40:16.087Z,14.18
2018-06-04T19:42:45.862Z,15.68
2018-06-04T19:45:14.990Z,18.17
2018-06-04T19:47:44.086Z,15.30
2018-06-04T19:50:13.353Z,16.32
2018-06-04T19:52:42.553Z,16.27
2018-06-04T19:55:11.638Z,16.23
2018-06-04T19:57:41.497Z,17.15
2018-06-04T20:00:10.527Z,17.17
2018-06-04T20:02:39.490Z,17.27
2018-06-04T20:05:08.859Z,18.02
2018-06-04T20:07:38.230Z,18.55
2018-06-04T20:10:07.330Z,18.23
2018-06-04T20:12:37.305Z,18.60
2018-06-04T20:15:06.398Z,18.50
2018-06-04T20:17:42.185Z,18.62
2018-06-04T20:20:11.212Z,19.73
2018-06-04T20:22:40.401Z,18.80
2018-06-04T20:25:09.478Z,19.83
2018-06-04T20:27:39.498Z,19.02
2018-06-04T20:30:08.683Z,20.72
2018-06-04T20:32:38.214Z,21.73
2018-06-04T20:35:07.299Z,20.72
2018-06-04T20:37:37.375Z,19.02
2018-06-04T20:40:06.780Z,19.98
2018-06-04T20:42:35.875Z,19.77
2018-06-04T20:45:04.914Z,19.10
2018-06-04T20:47:33.981Z,19.32
2018-06-04T20:50:03.114Z,21.62
2018-06-04T20:52:32.170Z,18.33
2018-06-04T20:55:01.206Z,19.40
2018-06-04T20:57:30.242Z,19.73
2018-06-04T20:59:59.291Z,20.17
2018-06-04T21:02:28.359Z,18.85
2018-06-04T21:04:58.928Z,19.12
2018-06-04T21:07:27.849Z,19.35
2018-06-04T21:09:56.835Z,19.05
2018-06-04T21:12:25.900Z,20.10
2018-06-04T21:14:54.907Z,19.10
2018-06-04T21:17:23.974Z,19.10
2018-06-04T21:19:52.981Z,19.40
2018-06-04T21:22:22.035Z,19.95
2018-06-04T21:24:51.069Z,20.02
2018-06-04T21:27:21.040Z,20.62
2018-06-04T21:29:50.187Z,20.20
2018-06-04T21:32:19.970Z,19.12
2018-06-04T21:34:49.660Z,18.60
2018-06-04T21:37:19.185Z,19.87
2018-06-04T21:39:48.229Z,18.17
2018-06-04T21:42:18.469Z,20.77
2018-06-04T21:44:47.490Z,21.55
2018-06-04T21:47:16.497Z,18.77
2018-06-04T21:49:45.512Z,19.40
2018-06-04T21:52:14.506Z,19.80
2018-06-04T21:54:44.673Z,19.23
2018-06-04T21:57:13.728Z,19.37
2018-06-04T21:59:42.743Z,20.37
2018-06-04T22:02:12.996Z,20.40
2018-06-04T22:04:44.707Z,19.80
2018-06-04T22:07:14.477Z,17.05
2018-06-04T22:09:47.497Z,20.43
2018-06-04T22:12:17.373Z,18.85
2018-06-04T22:14:48.463Z,20.00
2018-06-04T22:17:17.583Z,19.73
2018-06-04T22:19:46.653Z,21.73
2018-06-04T22:22:17.863Z,19.10
2018-06-04T22:24:46.911Z,18.05
2018-06-04T22:27:15.928Z,17.02
2018-06-04T22:29:45.248Z,19.50
2018-06-04T22:32:14.243Z,15.70
2018-06-04T22:34:44.410Z,16.02
2018-06-04T22:37:13.420Z,15.38
2018-06-04T22:39:42.548Z,17.02
2018-06-04T22:42:11.548Z,12.88
2018-06-04T22:44:43.205Z,16.60
2018-06-04T22:47:12.349Z,16.20
2018-06-04T22:49:41.700Z,13.67
2018-06-04T22:52:11.510Z,14.60
2018-06-04T22:54:41.889Z,14.18
2018-06-04T22:57:10.904Z,14.35
2018-06-04T22:59:40.795Z,13.63
2018-06-04T23:02:09.810Z,16.80
2018-06-04T23:04:41.710Z,18.37
2018-06-04T23:07:10.775Z,15.23
2018-06-04T23:09:39.784Z,14.47
2018-06-04T23:12:08.776Z,18.93
2018-06-04T23:14:37.768Z,21.87
2018-06-04T23:17:07.668Z,16.37
2018-06-04T23:19:36.704Z,15.37
2018-06-04T23:22:05.682Z,13.67
2018-06-04T23:24:35.563Z,14.37
2018-06-04T23:27:05.325Z,14.37
2018-06-04T23:29:35.543Z,13.50
2018-06-04T23:32:04.732Z,17.83
2018-06-04T23:34:34.446Z,14.23
2018-06-04T23:37:03.475Z,16.23
2018-06-04T23:39:32.539Z,15.97
2018-06-04T23:42:09.337Z,15.37
2018-06-04T23:44:58.330Z,13.90
2018-06-04T23:47:28.125Z,14.87
2018-06-04T23:49:57.168Z,13.40
2018-06-04T23:52:26.118Z,15.67
2018-06-04T23:54:55.067Z,15.67
2018-06-04T23:57:24.112Z,17.70
2018-06-04T23:59:53.460Z,16.77
